sensor_id;sensor_type;location;lat;lon;timestamp;pressure;altitude;pressure_sealevel;temperature
12126;BMP180;6126;57.908;16.490;2022-08-19T00:01:51;101256.25;;;17.73
12126;BMP180;6126;57.908;16.490;2022-08-19T00:04:24;101257.22;;;17.72
12126;BMP180;6126;57.908;16.490;2022-08-19T00:06:51;101256.81;;;17.78
12126;BMP180;6126;57.908;16.490;2022-08-19T00:09:21;101259.63;;;17.89
12126;BMP180;6126;57.908;16.490;2022-08-19T00:11:47;101259.88;;;17.98
12126;BMP180;6126;57.908;16.490;2022-08-19T00:14:15;101249.09;;;18.01
12126;BMP180;6126;57.908;16.490;2022-08-19T00:16:45;101246.75;;;17.97
12126;BMP180;6126;57.908;16.490;2022-08-19T00:19:11;101245.84;;;17.84
12126;BMP180;6126;57.908;16.490;2022-08-19T00:21:37;101235.47;;;17.81
12126;BMP180;6126;57.908;16.490;2022-08-19T00:24:10;101235.38;;;17.83
12126;BMP180;6126;57.908;16.490;2022-08-19T00:26:37;101233.59;;;17.83
12126;BMP180;6126;57.908;16.490;2022-08-19T00:29:09;101233.59;;;17.83
12126;BMP180;6126;57.908;16.490;2022-08-19T00:31:35;101235.81;;;17.89
12126;BMP180;6126;57.908;16.490;2022-08-19T00:34:01;101232.03;;;17.93
12126;BMP180;6126;57.908;16.490;2022-08-19T00:36:28;101238.66;;;17.86
12126;BMP180;6126;57.908;16.490;2022-08-19T00:38:55;101239.91;;;17.81
12126;BMP180;6126;57.908;16.490;2022-08-19T00:41:23;101236.50;;;17.79
12126;BMP180;6126;57.908;16.490;2022-08-19T00:44:14;101240.72;;;17.69
12126;BMP180;6126;57.908;16.490;2022-08-19T00:46:43;101243.66;;;17.64
12126;BMP180;6126;57.908;16.490;2022-08-19T00:52:11;101247.16;;;17.51
12126;BMP180;6126;57.908;16.490;2022-08-19T00:54:39;101248.22;;;17.35
12126;BMP180;6126;57.908;16.490;2022-08-19T00:57:11;101251.53;;;17.25
12126;BMP180;6126;57.908;16.490;2022-08-19T00:59:43;101264.19;;;17.20
12126;BMP180;6126;57.908;16.490;2022-08-19T01:02:11;101267.66;;;17.20
12126;BMP180;6126;57.908;16.490;2022-08-19T01:04:38;101261.16;;;17.26
12126;BMP180;6126;57.908;16.490;2022-08-19T01:07:05;101255.47;;;17.31
12126;BMP180;6126;57.908;16.490;2022-08-19T01:09:31;101250.94;;;17.33
12126;BMP180;6126;57.908;16.490;2022-08-19T01:11:57;101252.06;;;17.29
12126;BMP180;6126;57.908;16.490;2022-08-19T01:14:24;101259.34;;;17.26
12126;BMP180;6126;57.908;16.490;2022-08-19T01:16:51;101260.38;;;17.24
12126;BMP180;6126;57.908;16.490;2022-08-19T01:19:33;101249.06;;;17.22
12126;BMP180;6126;57.908;16.490;2022-08-19T01:24:39;101245.56;;;17.21
12126;BMP180;6126;57.908;16.490;2022-08-19T01:27:06;101256.25;;;17.20
12126;BMP180;6126;57.908;16.490;2022-08-19T01:29:34;101268.69;;;17.18
12126;BMP180;6126;57.908;16.490;2022-08-19T01:32:02;101262.66;;;17.16
12126;BMP180;6126;57.908;16.490;2022-08-19T01:34:28;101258.41;;;17.13
12126;BMP180;6126;57.908;16.490;2022-08-19T01:36:54;101267.50;;;17.08
12126;BMP180;6126;57.908;16.490;2022-08-19T01:39:26;101264.22;;;17.04
12126;BMP180;6126;57.908;16.490;2022-08-19T01:41:52;101262.44;;;17.05
12126;BMP180;6126;57.908;16.490;2022-08-19T01:44:20;101261.59;;;17.04
12126;BMP180;6126;57.908;16.490;2022-08-19T01:46:50;101261.38;;;17.07
12126;BMP180;6126;57.908;16.490;2022-08-19T01:49:22;101256.88;;;17.09
12126;BMP180;6126;57.908;16.490;2022-08-19T01:51:49;101262.22;;;17.08
12126;BMP180;6126;57.908;16.490;2022-08-19T01:54:18;101261.19;;;17.10
12126;BMP180;6126;57.908;16.490;2022-08-19T01:56:44;101260.28;;;17.11
12126;BMP180;6126;57.908;16.490;2022-08-19T01:59:14;101262.22;;;17.08
12126;BMP180;6126;57.908;16.490;2022-08-19T02:01:42;101262.44;;;17.05
12126;BMP180;6126;57.908;16.490;2022-08-19T02:04:08;101267.72;;;17.05
12126;BMP180;6126;57.908;16.490;2022-08-19T02:06:35;101265.81;;;17.07
12126;BMP180;6126;57.908;16.490;2022-08-19T02:09:04;101259.97;;;17.02
12126;BMP180;6126;57.908;16.490;2022-08-19T02:11:34;101254.88;;;16.99
12126;BMP180;6126;57.908;16.490;2022-08-19T02:14:05;101256.75;;;16.97
12126;BMP180;6126;57.908;16.490;2022-08-19T02:16:32;101269.97;;;16.97
12126;BMP180;6126;57.908;16.490;2022-08-19T02:18:58;101275.25;;;16.97
12126;BMP180;6126;57.908;16.490;2022-08-19T02:21:29;101275.25;;;16.97
12126;BMP180;6126;57.908;16.490;2022-08-19T02:23:55;101264.09;;;16.92
12126;BMP180;6126;57.908;16.490;2022-08-19T02:26:22;101267.78;;;16.90
12126;BMP180;6126;57.908;16.490;2022-08-19T02:28:49;101265.41;;;16.85
12126;BMP180;6126;57.908;16.490;2022-08-19T02:31:21;101271.63;;;16.84
12126;BMP180;6126;57.908;16.490;2022-08-19T02:33:48;101270.69;;;16.85
12126;BMP180;6126;57.908;16.490;2022-08-19T02:36:16;101275.97;;;16.85
12126;BMP180;6126;57.908;16.490;2022-08-19T02:38:44;101270.88;;;16.82
12126;BMP180;6126;57.908;16.490;2022-08-19T02:41:21;101278.03;;;16.80
12126;BMP180;6126;57.908;16.490;2022-08-19T02:43:48;101271.06;;;16.79
12126;BMP180;6126;57.908;16.490;2022-08-19T02:46:25;101259.66;;;16.79
12126;BMP180;6126;57.908;16.490;2022-08-19T02:48:56;101269.25;;;16.80
12126;BMP180;6126;57.908;16.490;2022-08-19T02:51:30;101275.31;;;16.82
12126;BMP180;6126;57.908;16.490;2022-08-19T02:53:57;101269.84;;;16.85
12126;BMP180;6126;57.908;16.490;2022-08-19T02:56:24;101273.25;;;16.87
12126;BMP180;6126;57.908;16.490;2022-08-19T02:58:53;101273.06;;;16.90
12126;BMP180;6126;57.908;16.490;2022-08-19T03:01:30;101276.47;;;16.92
12126;BMP180;6126;57.908;16.490;2022-08-19T03:03:59;101271.56;;;16.86
12126;BMP180;6126;57.908;16.490;2022-08-19T03:06:27;101275.69;;;16.76
12126;BMP180;6126;57.908;16.490;2022-08-19T03:08:53;101278.78;;;16.68
12126;BMP180;6126;57.908;16.490;2022-08-19T03:11:25;101281.78;;;16.63
12126;BMP180;6126;57.908;16.490;2022-08-19T03:13:52;101279.31;;;16.60
12126;BMP180;6126;57.908;16.490;2022-08-19T03:16:25;101278.75;;;16.55
12126;BMP180;6126;57.908;16.490;2022-08-19T03:18:52;101284.28;;;16.50
12126;BMP180;6126;57.908;16.490;2022-08-19T03:21:23;101274.81;;;16.46
12126;BMP180;6126;57.908;16.490;2022-08-19T03:23:53;101274.75;;;16.48
12126;BMP180;6126;57.908;16.490;2022-08-19T03:26:19;101283.44;;;16.50
12126;BMP180;6126;57.908;16.490;2022-08-19T03:28:45;101284.16;;;16.52
12126;BMP180;6126;57.908;16.490;2022-08-19T03:31:18;101283.13;;;16.54
12126;BMP180;6126;57.908;16.490;2022-08-19T03:33:45;101279.41;;;16.58
12126;BMP180;6126;57.908;16.490;2022-08-19T03:36:24;101292.34;;;16.63
12126;BMP180;6126;57.908;16.490;2022-08-19T03:38:54;101291.97;;;16.68
12126;BMP180;6126;57.908;16.490;2022-08-19T03:41:38;101291.69;;;16.73
12126;BMP180;6126;57.908;16.490;2022-08-19T03:44:05;101279.16;;;16.76
12126;BMP180;6126;57.908;16.490;2022-08-19T03:46:33;101289.81;;;16.75
12126;BMP180;6126;57.908;16.490;2022-08-19T03:49:03;101293.56;;;16.71
12126;BMP180;6126;57.908;16.490;2022-08-19T03:51:37;101296.28;;;16.69
12126;BMP180;6126;57.908;16.490;2022-08-19T03:54:08;101296.28;;;16.69
12126;BMP180;6126;57.908;16.490;2022-08-19T03:56:38;101290.09;;;16.70
12126;BMP180;6126;57.908;16.490;2022-08-19T03:59:07;101285.75;;;16.69
12126;BMP180;6126;57.908;16.490;2022-08-19T04:01:35;101286.69;;;16.68
12126;BMP180;6126;57.908;16.490;2022-08-19T04:04:02;101287.63;;;16.67
12126;BMP180;6126;57.908;16.490;2022-08-19T04:06:32;101278.84;;;16.67
12126;BMP180;6126;57.908;16.490;2022-08-19T04:09:03;101278.97;;;16.66
12126;BMP180;6126;57.908;16.490;2022-08-19T04:11:40;101280.06;;;16.62
12126;BMP180;6126;57.908;16.490;2022-08-19T04:14:09;101280.91;;;16.62
12126;BMP180;6126;57.908;16.490;2022-08-19T04:16:35;101272.06;;;16.63
12126;BMP180;6126;57.908;16.490;2022-08-19T04:19:04;101278.00;;;16.66
12126;BMP180;6126;57.908;16.490;2022-08-19T04:21:30;101266.34;;;16.70
12126;BMP180;6126;57.908;16.490;2022-08-19T04:23:57;101276.53;;;16.76
12126;BMP180;6126;57.908;16.490;2022-08-19T04:26:28;101267.56;;;16.79
12126;BMP180;6126;57.908;16.490;2022-08-19T04:28:58;101279.56;;;16.84
12126;BMP180;6126;57.908;16.490;2022-08-19T04:31:28;101278.44;;;16.88
12126;BMP180;6126;57.908;16.490;2022-08-19T04:34:00;101274.59;;;16.94
12126;BMP180;6126;57.908;16.490;2022-08-19T04:36:31;101288.25;;;17.00
12126;BMP180;6126;57.908;16.490;2022-08-19T04:39:05;101281.56;;;17.08
12126;BMP180;6126;57.908;16.490;2022-08-19T04:41:32;101300.56;;;17.15
12126;BMP180;6126;57.908;16.490;2022-08-19T04:44:16;101300.19;;;17.21
12126;BMP180;6126;57.908;16.490;2022-08-19T04:46:47;101302.47;;;17.27
12126;BMP180;6126;57.908;16.490;2022-08-19T04:49:14;101305.59;;;17.33
12126;BMP180;6126;57.908;16.490;2022-08-19T04:51:43;101306.03;;;17.39
12126;BMP180;6126;57.908;16.490;2022-08-19T04:54:10;101308.31;;;17.45
12126;BMP180;6126;57.908;16.490;2022-08-19T04:56:36;101287.84;;;17.49
12126;BMP180;6126;57.908;16.490;2022-08-19T04:59:03;101293.69;;;17.54
12126;BMP180;6126;57.908;16.490;2022-08-19T05:01:32;101293.50;;;17.57
12126;BMP180;6126;57.908;16.490;2022-08-19T05:04:05;101293.09;;;17.62
12126;BMP180;6126;57.908;16.490;2022-08-19T05:06:34;101287.41;;;17.68
12126;BMP180;6126;57.908;16.490;2022-08-19T05:09:04;101283.66;;;17.72
12126;BMP180;6126;57.908;16.490;2022-08-19T05:11:36;101279.84;;;17.76
12126;BMP180;6126;57.908;16.490;2022-08-19T05:14:07;101272.59;;;17.80
12126;BMP180;6126;57.908;16.490;2022-08-19T05:16:33;101272.97;;;17.88
12126;BMP180;6126;57.908;16.490;2022-08-19T05:18:59;101282.00;;;17.97
12126;BMP180;6126;57.908;16.490;2022-08-19T05:21:43;101277.94;;;18.06
12126;BMP180;6126;57.908;16.490;2022-08-19T05:24:31;101280.09;;;18.13
12126;BMP180;6126;57.908;16.490;2022-08-19T05:27:00;101288.59;;;18.18
12126;BMP180;6126;57.908;16.490;2022-08-19T05:29:29;101286.47;;;18.23
12126;BMP180;6126;57.908;16.490;2022-08-19T05:31:58;101298.56;;;18.27
12126;BMP180;6126;57.908;16.490;2022-08-19T05:34:25;101304.50;;;18.30
12126;BMP180;6126;57.908;16.490;2022-08-19T05:36:59;101305.16;;;18.34
12126;BMP180;6126;57.908;16.490;2022-08-19T05:39:29;101304.94;;;18.37
12126;BMP180;6126;57.908;16.490;2022-08-19T05:42:01;101304.53;;;18.43
12126;BMP180;6126;57.908;16.490;2022-08-19T05:44:31;101297.91;;;18.50
12126;BMP180;6126;57.908;16.490;2022-08-19T05:47:03;101300.00;;;18.57
12126;BMP180;6126;57.908;16.490;2022-08-19T05:49:32;101299.72;;;18.61
12126;BMP180;6126;57.908;16.490;2022-08-19T05:52:03;101288.72;;;18.67
12126;BMP180;6126;57.908;16.490;2022-08-19T05:54:30;101287.16;;;18.77
12126;BMP180;6126;57.908;16.490;2022-08-19T05:56:56;101283.91;;;18.86
12126;BMP180;6126;57.908;16.490;2022-08-19T05:59:23;101281.59;;;18.94
12126;BMP180;6126;57.908;16.490;2022-08-19T06:01:51;101282.00;;;19.00
12126;BMP180;6126;57.908;16.490;2022-08-19T06:04:19;101283.19;;;19.09
12126;BMP180;6126;57.908;16.490;2022-08-19T06:06:51;101287.75;;;19.19
12126;BMP180;6126;57.908;16.490;2022-08-19T06:09:19;101288.19;;;19.25
12126;BMP180;6126;57.908;16.490;2022-08-19T06:11:57;101282.44;;;19.31
12126;BMP180;6126;57.908;16.490;2022-08-19T06:14:32;101285.63;;;19.36
12126;BMP180;6126;57.908;16.490;2022-08-19T06:17:00;101287.75;;;19.44
12126;BMP180;6126;57.908;16.490;2022-08-19T06:19:29;101284.56;;;19.51
12126;BMP180;6126;57.908;16.490;2022-08-19T06:21:58;101285.78;;;19.58
12126;BMP180;6126;57.908;16.490;2022-08-19T06:24:27;101284.50;;;19.63
12126;BMP180;6126;57.908;16.490;2022-08-19T06:26:55;101285.91;;;19.69
12126;BMP180;6126;57.908;16.490;2022-08-19T06:29:26;101288.13;;;19.75
12126;BMP180;6126;57.908;16.490;2022-08-19T06:31:56;101291.94;;;19.83
12126;BMP180;6126;57.908;16.490;2022-08-19T06:34:22;101286.09;;;19.90
12126;BMP180;6126;57.908;16.490;2022-08-19T06:36:51;101278.41;;;19.98
12126;BMP180;6126;57.908;16.490;2022-08-19T06:39:27;101277.72;;;20.07
12126;BMP180;6126;57.908;16.490;2022-08-19T06:41:56;101282.25;;;20.17
12126;BMP180;6126;57.908;16.490;2022-08-19T06:44:26;101284.47;;;20.23
12126;BMP180;6126;57.908;16.490;2022-08-19T06:46:54;101292.59;;;20.33
12126;BMP180;6126;57.908;16.490;2022-08-19T06:49:22;101297.00;;;20.44
12126;BMP180;6126;57.908;16.490;2022-08-19T06:51:49;101284.84;;;20.53
12126;BMP180;6126;57.908;16.490;2022-08-19T06:54:17;101287.56;;;20.64
12126;BMP180;6126;57.908;16.490;2022-08-19T06:56:44;101284.13;;;20.74
12126;BMP180;6126;57.908;16.490;2022-08-19T06:59:15;101287.28;;;20.79
12126;BMP180;6126;57.908;16.490;2022-08-19T07:01:46;101284.03;;;20.86
12126;BMP180;6126;57.908;16.490;2022-08-19T07:04:16;101289.72;;;20.93
12126;BMP180;6126;57.908;16.490;2022-08-19T07:06:43;101287.06;;;21.03
12126;BMP180;6126;57.908;16.490;2022-08-19T07:09:15;101288.06;;;21.13
12126;BMP180;6126;57.908;16.490;2022-08-19T07:11:50;101293.63;;;21.21
12126;BMP180;6126;57.908;16.490;2022-08-19T07:14:19;101281.81;;;21.25
12126;BMP180;6126;57.908;16.490;2022-08-19T07:16:48;101277.94;;;21.29
12126;BMP180;6126;57.908;16.490;2022-08-19T07:19:16;101280.88;;;21.37
12126;BMP180;6126;57.908;16.490;2022-08-19T07:21:42;101287.16;;;21.47
12126;BMP180;6126;57.908;16.490;2022-08-19T07:24:08;101283.78;;;21.56
12126;BMP180;6126;57.908;16.490;2022-08-19T07:26:41;101285.84;;;21.63
12126;BMP180;6126;57.908;16.490;2022-08-19T07:29:07;101295.75;;;21.72
12126;BMP180;6126;57.908;16.490;2022-08-19T07:31:33;101295.84;;;21.81
12126;BMP180;6126;57.908;16.490;2022-08-19T07:34:07;101297.78;;;21.90
12126;BMP180;6126;57.908;16.490;2022-08-19T07:36:36;101297.88;;;21.99
12126;BMP180;6126;57.908;16.490;2022-08-19T07:39:18;101301.63;;;22.08
12126;BMP180;6126;57.908;16.490;2022-08-19T07:41:47;101306.25;;;22.17
12126;BMP180;6126;57.908;16.490;2022-08-19T07:44:14;101302.69;;;22.27
12126;BMP180;6126;57.908;16.490;2022-08-19T07:46:46;101309.81;;;22.37
12126;BMP180;6126;57.908;16.490;2022-08-19T07:49:14;101305.53;;;22.46
12126;BMP180;6126;57.908;16.490;2022-08-19T07:52:06;101302.97;;;22.55
12126;BMP180;6126;57.908;16.490;2022-08-19T07:54:36;101295.91;;;22.65
12126;BMP180;6126;57.908;16.490;2022-08-19T07:57:03;101303.13;;;22.74
12126;BMP180;6126;57.908;16.490;2022-08-19T07:59:29;101297.28;;;22.80
12126;BMP180;6126;57.908;16.490;2022-08-19T08:01:57;101301.72;;;22.90
12126;BMP180;6126;57.908;16.490;2022-08-19T08:04:25;101295.50;;;23.00
12126;BMP180;6126;57.908;16.490;2022-08-19T08:07:09;101293.63;;;23.12
12126;BMP180;6126;57.908;16.490;2022-08-19T08:09:54;101296.31;;;23.21
12126;BMP180;6126;57.908;16.490;2022-08-19T08:12:34;101297.97;;;23.33
12126;BMP180;6126;57.908;16.490;2022-08-19T08:15:08;101293.25;;;23.46
12126;BMP180;6126;57.908;16.490;2022-08-19T08:17:36;101292.75;;;23.61
12126;BMP180;6126;57.908;16.490;2022-08-19T08:20:06;101293.25;;;23.75
12126;BMP180;6126;57.908;16.490;2022-08-19T08:22:32;101287.41;;;23.90
12126;BMP180;6126;57.908;16.490;2022-08-19T08:25:22;101286.75;;;24.07
12126;BMP180;6126;57.908;16.490;2022-08-19T08:27:49;101286.13;;;24.24
12126;BMP180;6126;57.908;16.490;2022-08-19T08:30:22;101282.03;;;24.39
12126;BMP180;6126;57.908;16.490;2022-08-19T08:32:49;101280.66;;;24.53
12126;BMP180;6126;57.908;16.490;2022-08-19T08:35:19;101275.88;;;24.66
12126;BMP180;6126;57.908;16.490;2022-08-19T08:37:52;101278.38;;;24.77
12126;BMP180;6126;57.908;16.490;2022-08-19T08:46:17;101285.84;;;25.11
12126;BMP180;6126;57.908;16.490;2022-08-19T08:51:34;101269.59;;;25.31
12126;BMP180;6126;57.908;16.490;2022-08-19T08:54:06;101267.44;;;25.44
12126;BMP180;6126;57.908;16.490;2022-08-19T08:56:32;101264.59;;;25.55
12126;BMP180;6126;57.908;16.490;2022-08-19T08:59:20;101263.56;;;25.65
12126;BMP180;6126;57.908;16.490;2022-08-19T09:01:46;101269.03;;;25.73
12126;BMP180;6126;57.908;16.490;2022-08-19T09:04:13;101259.41;;;25.80
12126;BMP180;6126;57.908;16.490;2022-08-19T09:15:05;101253.31;;;26.14
12126;BMP180;6126;57.908;16.490;2022-08-19T09:17:32;101248.50;;;26.17
12126;BMP180;6126;57.908;16.490;2022-08-19T09:20:15;101254.25;;;26.22
12126;BMP180;6126;57.908;16.490;2022-08-19T09:22:42;101246.28;;;26.30
12126;BMP180;6126;57.908;16.490;2022-08-19T09:25:16;101247.50;;;26.35
12126;BMP180;6126;57.908;16.490;2022-08-19T09:27:44;101253.78;;;26.44
12126;BMP180;6126;57.908;16.490;2022-08-19T09:30:19;101244.97;;;26.51
12126;BMP180;6126;57.908;16.490;2022-08-19T09:32:46;101242.34;;;26.59
12126;BMP180;6126;57.908;16.490;2022-08-19T09:35:14;101240.75;;;26.66
12126;BMP180;6126;57.908;16.490;2022-08-19T09:37:42;101243.66;;;26.72
12126;BMP180;6126;57.908;16.490;2022-08-19T09:40:09;101240.22;;;26.80
12126;BMP180;6126;57.908;16.490;2022-08-19T09:42:35;101234.25;;;26.86
12126;BMP180;6126;57.908;16.490;2022-08-19T09:45:02;101229.22;;;26.91
12126;BMP180;6126;57.908;16.490;2022-08-19T09:47:29;101235.84;;;26.96
12126;BMP180;6126;57.908;16.490;2022-08-19T09:49:55;101226.78;;;26.97
12126;BMP180;6126;57.908;16.490;2022-08-19T09:52:21;101222.94;;;26.99
12126;BMP180;6126;57.908;16.490;2022-08-19T09:54:47;101218.94;;;27.03
12126;BMP180;6126;57.908;16.490;2022-08-19T09:57:13;101224.66;;;27.08
12126;BMP180;6126;57.908;16.490;2022-08-19T09:59:39;101219.16;;;27.10
12126;BMP180;6126;57.908;16.490;2022-08-19T10:02:05;101213.63;;;27.11
12126;BMP180;6126;57.908;16.490;2022-08-19T10:04:31;101208.78;;;27.15
12126;BMP180;6126;57.908;16.490;2022-08-19T10:07:17;101210.47;;;27.16
12126;BMP180;6126;57.908;16.490;2022-08-19T10:09:43;101208.47;;;27.18
12126;BMP180;6126;57.908;16.490;2022-08-19T10:12:09;101211.84;;;27.20
12126;BMP180;6126;57.908;16.490;2022-08-19T10:14:36;101209.81;;;27.22
12126;BMP180;6126;57.908;16.490;2022-08-19T10:17:02;101218.75;;;27.22
12126;BMP180;6126;57.908;16.490;2022-08-19T10:19:29;101208.47;;;27.18
12126;BMP180;6126;57.908;16.490;2022-08-19T10:22:04;101219.53;;;27.15
12126;BMP180;6126;57.908;16.490;2022-08-19T10:24:31;101216.66;;;27.16
12126;BMP180;6126;57.908;16.490;2022-08-19T10:26:58;101209.81;;;27.22
12126;BMP180;6126;57.908;16.490;2022-08-19T10:29:25;101211.72;;;27.29
12126;BMP180;6126;57.908;16.490;2022-08-19T10:31:53;101207.78;;;27.41
12126;BMP180;6126;57.908;16.490;2022-08-19T10:34:19;101204.13;;;27.50
12126;BMP180;6126;57.908;16.490;2022-08-19T10:36:45;101203.00;;;27.60
12126;BMP180;6126;57.908;16.490;2022-08-19T10:39:11;101195.81;;;27.68
12126;BMP180;6126;57.908;16.490;2022-08-19T10:41:39;101192.50;;;27.74
12126;BMP180;6126;57.908;16.490;2022-08-19T10:44:09;101183.09;;;27.78
12126;BMP180;6126;57.908;16.490;2022-08-19T10:46:43;101174.19;;;27.78
12126;BMP180;6126;57.908;16.490;2022-08-19T10:49:11;101172.81;;;27.74
12126;BMP180;6126;57.908;16.490;2022-08-19T10:51:39;101171.16;;;27.73
12126;BMP180;6126;57.908;16.490;2022-08-19T10:54:24;101166.28;;;27.76
12126;BMP180;6126;57.908;16.490;2022-08-19T10:57:11;101168.13;;;27.76
12126;BMP180;6126;57.908;16.490;2022-08-19T10:59:37;101163.09;;;27.73
12126;BMP180;6126;57.908;16.490;2022-08-19T11:02:08;101159.91;;;27.69
12126;BMP180;6126;57.908;16.490;2022-08-19T11:04:37;101160.06;;;27.68
12126;BMP180;6126;57.908;16.490;2022-08-19T11:07:06;101157.03;;;27.63
12126;BMP180;6126;57.908;16.490;2022-08-19T11:09:39;101155.00;;;27.57
12126;BMP180;6126;57.908;16.490;2022-08-19T11:12:06;101155.16;;;27.56
12126;BMP180;6126;57.908;16.490;2022-08-19T11:14:34;101150.31;;;27.59
12126;BMP180;6126;57.908;16.490;2022-08-19T11:17:01;101152.69;;;27.70
12126;BMP180;6126;57.908;16.490;2022-08-19T11:19:27;101153.06;;;27.83
12126;BMP180;6126;57.908;16.490;2022-08-19T11:21:53;101150.09;;;27.93
12126;BMP180;6126;57.908;16.490;2022-08-19T11:24:23;101155.81;;;28.06
12126;BMP180;6126;57.908;16.490;2022-08-19T11:26:52;101148.94;;;28.12
12126;BMP180;6126;57.908;16.490;2022-08-19T11:29:22;101151.13;;;28.16
12126;BMP180;6126;57.908;16.490;2022-08-19T11:31:51;101147.63;;;28.23
12126;BMP180;6126;57.908;16.490;2022-08-19T11:34:22;101142.25;;;28.31
12126;BMP180;6126;57.908;16.490;2022-08-19T11:36:50;101137.84;;;28.38
12126;BMP180;6126;57.908;16.490;2022-08-19T11:39:21;101131.63;;;28.46
12126;BMP180;6126;57.908;16.490;2022-08-19T11:41:47;101122.91;;;28.52
12126;BMP180;6126;57.908;16.490;2022-08-19T11:44:14;101123.25;;;28.56
12126;BMP180;6126;57.908;16.490;2022-08-19T11:46:42;101117.53;;;28.59
12126;BMP180;6126;57.908;16.490;2022-08-19T11:49:15;101127.78;;;28.64
12126;BMP180;6126;57.908;16.490;2022-08-19T11:51:41;101123.22;;;28.64
12126;BMP180;6126;57.908;16.490;2022-08-19T11:54:10;101125.91;;;28.64
12126;BMP180;6126;57.908;16.490;2022-08-19T11:56:38;101129.28;;;28.66
12126;BMP180;6126;57.908;16.490;2022-08-19T11:59:05;101130.94;;;28.67
12126;BMP180;6126;57.908;16.490;2022-08-19T12:01:30;101123.91;;;28.66
12126;BMP180;6126;57.908;16.490;2022-08-19T12:03:58;101117.22;;;28.62
12126;BMP180;6126;57.908;16.490;2022-08-19T12:06:28;101119.56;;;28.65
12126;BMP180;6126;57.908;16.490;2022-08-19T12:09:05;101116.50;;;28.68
12126;BMP180;6126;57.908;16.490;2022-08-19T12:11:31;101117.19;;;28.70
12126;BMP180;6126;57.908;16.490;2022-08-19T12:13:58;101108.09;;;28.71
12126;BMP180;6126;57.908;16.490;2022-08-19T12:16:28;101111.94;;;28.77
12126;BMP180;6126;57.908;16.490;2022-08-19T12:18:56;101110.94;;;28.78
12126;BMP180;6126;57.908;16.490;2022-08-19T12:21:26;101104.72;;;28.77
12126;BMP180;6126;57.908;16.490;2022-08-19T12:23:57;101108.44;;;28.76
12126;BMP180;6126;57.908;16.490;2022-08-19T12:26:25;101103.72;;;28.78
12126;BMP180;6126;57.908;16.490;2022-08-19T12:28:53;101101.66;;;28.80
12126;BMP180;6126;57.908;16.490;2022-08-19T12:31:19;101099.50;;;28.83
12126;BMP180;6126;57.908;16.490;2022-08-19T12:33:46;101086.69;;;28.85
12126;BMP180;6126;57.908;16.490;2022-08-19T12:36:14;101082.19;;;28.86
12126;BMP180;6126;57.908;16.490;2022-08-19T12:38:41;101074.75;;;28.88
12126;BMP180;6126;57.908;16.490;2022-08-19T12:41:12;101073.91;;;28.87
12126;BMP180;6126;57.908;16.490;2022-08-19T12:43:39;101073.56;;;28.90
12126;BMP180;6126;57.908;16.490;2022-08-19T12:46:06;101068.03;;;28.92
12126;BMP180;6126;57.908;16.490;2022-08-19T12:48:33;101065.34;;;28.92
12126;BMP180;6126;57.908;16.490;2022-08-19T12:51:00;101061.97;;;28.90
12126;BMP180;6126;57.908;16.490;2022-08-19T12:53:30;101052.38;;;28.87
12126;BMP180;6126;57.908;16.490;2022-08-19T12:55:58;101053.22;;;28.88
12126;BMP180;6126;57.908;16.490;2022-08-19T12:58:26;101053.22;;;28.88
12126;BMP180;6126;57.908;16.490;2022-08-19T13:00:52;101056.09;;;28.86
12126;BMP180;6126;57.908;16.490;2022-08-19T13:03:18;101044.50;;;28.86
12126;BMP180;6126;57.908;16.490;2022-08-19T13:05:44;101048.03;;;28.86
12126;BMP180;6126;57.908;16.490;2022-08-19T13:08:10;101041.81;;;28.86
12126;BMP180;6126;57.908;16.490;2022-08-19T13:10:37;101046.34;;;28.85
12126;BMP180;6126;57.908;16.490;2022-08-19T13:13:09;101042.81;;;28.85
12126;BMP180;6126;57.908;16.490;2022-08-19T13:15:39;101039.47;;;28.83
12126;BMP180;6126;57.908;16.490;2022-08-19T13:18:09;101035.75;;;28.84
12126;BMP180;6126;57.908;16.490;2022-08-19T13:20:37;101028.38;;;28.86
12126;BMP180;6126;57.908;16.490;2022-08-19T13:23:04;101029.00;;;28.88
12126;BMP180;6126;57.908;16.490;2022-08-19T13:25:31;101025.47;;;28.87
12126;BMP180;6126;57.908;16.490;2022-08-19T13:27:57;101022.63;;;28.89
12126;BMP180;6126;57.908;16.490;2022-08-19T13:30:23;101021.59;;;28.90
12126;BMP180;6126;57.908;16.490;2022-08-19T13:33:08;101021.97;;;28.87
12126;BMP180;6126;57.908;16.490;2022-08-19T13:35:56;101009.69;;;28.84
12126;BMP180;6126;57.908;16.490;2022-08-19T13:38:23;101016.09;;;28.83
12126;BMP180;6126;57.908;16.490;2022-08-19T13:40:52;101007.34;;;28.82
12126;BMP180;6126;57.908;16.490;2022-08-19T13:43:21;101015.59;;;28.80
12126;BMP180;6126;57.908;16.490;2022-08-19T13:45:50;101012.41;;;28.77
12126;BMP180;6126;57.908;16.490;2022-08-19T13:48:17;101004.50;;;28.75
12126;BMP180;6126;57.908;16.490;2022-08-19T13:50:45;101009.88;;;28.75
12126;BMP180;6126;57.908;16.490;2022-08-19T13:53:13;101004.50;;;28.75
12126;BMP180;6126;57.908;16.490;2022-08-19T13:55:43;101007.88;;;28.77
12126;BMP180;6126;57.908;16.490;2022-08-19T13:58:11;101006.38;;;28.75
12126;BMP180;6126;57.908;16.490;2022-08-19T14:00:43;101016.50;;;28.73
12126;BMP180;6126;57.908;16.490;2022-08-19T14:03:09;101018.50;;;28.71
12126;BMP180;6126;57.908;16.490;2022-08-19T14:05:35;101011.63;;;28.68
12126;BMP180;6126;57.908;16.490;2022-08-19T14:08:01;101018.19;;;28.66
12126;BMP180;6126;57.908;16.490;2022-08-19T14:10:28;101012.13;;;28.64
12126;BMP180;6126;57.908;16.490;2022-08-19T14:12:59;101015.00;;;28.62
12126;BMP180;6126;57.908;16.490;2022-08-19T14:15:27;101015.50;;;28.58
12126;BMP180;6126;57.908;16.490;2022-08-19T14:17:53;101007.28;;;28.52
12126;BMP180;6126;57.908;16.490;2022-08-19T14:20:20;101015.84;;;28.47
12126;BMP180;6126;57.908;16.490;2022-08-19T14:22:47;101010.97;;;28.43
12126;BMP180;6126;57.908;16.490;2022-08-19T14:25:29;101008.81;;;28.38
12126;BMP180;6126;57.908;16.490;2022-08-19T14:27:56;101013.84;;;28.33
12126;BMP180;6126;57.908;16.490;2022-08-19T14:30:27;101008.69;;;28.24
12126;BMP180;6126;57.908;16.490;2022-08-19T14:32:55;101012.38;;;28.15